Detalhes
Pagamentos Mensais
Credor N° Pagamento N° Liquidação N° Empenho Data (R$) Liquidado Detalhes
COFARMINAS COMERCIO DE PRODUTOS FARMACEUTICOS LTDA 0000315 0000284 0000305 01/02/2019 R$ 9.115,29
COFARMINAS COMERCIO DE PRODUTOS FARMACEUTICOS LTDA 0000316 0000285 0000306 01/02/2019 R$ 15.858,50
COFARMINAS COMERCIO DE PRODUTOS FARMACEUTICOS LTDA 0000317 0000286 0000293 01/02/2019 R$ 12.687,26
COFARMINAS COMERCIO DE PRODUTOS FARMACEUTICOS LTDA 0000318 0000287 0000291 01/02/2019 R$ 18.394,98
COFARMINAS COMERCIO DE PRODUTOS FARMACEUTICOS LTDA 0000319 0000288 0000290 01/02/2019 R$ 17.888,22
COFARMINAS COMERCIO DE PRODUTOS FARMACEUTICOS LTDA 0000320 0000289 0000292 01/02/2019 R$ 16.957,69
COFARMINAS COMERCIO DE PRODUTOS FARMACEUTICOS LTDA 0000321 0000290 0000294 01/02/2019 R$ 16.844,22
COFARMINAS COMERCIO DE PRODUTOS FARMACEUTICOS LTDA 0000322 0000291 0000295 01/02/2019 R$ 28.213,84
COFARMINAS COMERCIO DE PRODUTOS FARMACEUTICOS LTDA 0000323 0000292 0000296 01/02/2019 R$ 16.025,94
COFARMINAS COMERCIO DE PRODUTOS FARMACEUTICOS LTDA 0000324 0000293 0000297 01/02/2019 R$ 2.301,74
COFARMINAS COMERCIO DE PRODUTOS FARMACEUTICOS LTDA 0000325 0000294 0000298 01/02/2019 R$ 9.114,76
COFARMINAS COMERCIO DE PRODUTOS FARMACEUTICOS LTDA 0000326 0000295 0000299 01/02/2019 R$ 12.373,21
COFARMINAS COMERCIO DE PRODUTOS FARMACEUTICOS LTDA 0000327 0000296 0000300 01/02/2019 R$ 16.999,97
COFARMINAS COMERCIO DE PRODUTOS FARMACEUTICOS LTDA 0000328 0000297 0000301 01/02/2019 R$ 20.202,16
COFARMINAS COMERCIO DE PRODUTOS FARMACEUTICOS LTDA 0000329 0000298 0000302 01/02/2019 R$ 22.507,08
COFARMINAS COMERCIO DE PRODUTOS FARMACEUTICOS LTDA 0000330 0000299 0000304 01/02/2019 R$ 17.416,78
COFARMINAS COMERCIO DE PRODUTOS FARMACEUTICOS LTDA 0000331 0000300 0000307 01/02/2019 R$ 29.404,67
COFARMINAS COMERCIO DE PRODUTOS FARMACEUTICOS LTDA 0000332 0000301 0000308 01/02/2019 R$ 21.763,53
COFARMINAS COMERCIO DE PRODUTOS FARMACEUTICOS LTDA 0000333 0000302 0000309 01/02/2019 R$ 22.928,13
COFARMINAS COMERCIO DE PRODUTOS FARMACEUTICOS LTDA 0000334 0000340 0000303 01/02/2019 R$ 22.918,24
CRISTIANO ALVES BISPO 0000259 0000214 0000217 04/02/2019 R$ 2.130,00
MAURICIO JUNIOR SANTOS CHAVES 0000497 0000380 0000342 04/02/2019 R$ 380,00
RH ELETROMEDICINA E SERVIÇOS LTDA 0000257 0000209 0002609 05/02/2019 R$ 3.198,00
RICARDO MARTINHO PEREIRA LOPES & CIA LTDA-ME 0000338 0000347 0000110 05/02/2019 R$ 3.130,00
RICARDO MARTINHO PEREIRA LOPES & CIA LTDA-ME 0000339 0000348 0000108 05/02/2019 R$ 436,00
RICARDO MARTINHO PEREIRA LOPES & CIA LTDA-ME 0000340 0000349 0000111 05/02/2019 R$ 4.985,00
RICARDO MARTINHO PEREIRA LOPES & CIA LTDA-ME 0000341 0000350 0000103 05/02/2019 R$ 6.260,00
SECRETARIA DE ESTADO DE CASA CIVIL E DE RELAÇOES INSTITUCIONAIS 0000343 0000352 0000015 05/02/2019 R$ 442,95
ADIVALDO MARES DA ROCHA 0000498 0000381 0000340 05/02/2019 R$ 400,00
ROBSON ALVES PORTO 0000499 0000382 0000333 05/02/2019 R$ 100,00
ADIVALDO MARES DA ROCHA 0000503 0000383 0000341 05/02/2019 R$ 390,00
ECTEMP.BRAS. DE CORREIOS E TELEGRAFOS 0000344 0000353 0000022 06/02/2019 R$ 38,36
SECRETARIA DE ESTADO DA FAZENDA DE MINAS GERAIS 0002116 0001700 0000950 06/02/2019 R$ 21.233,05
JUCIMAR ALVES DE OLIVEIRA 0000115 0002815 07/02/2019 R$ 672,00
KARILENE DOS SANTOS 0000303 0000063 0000095 07/02/2019 R$ 150,00
ANTONIO RODRIGUES DOS SANTOS 0000509 0000385 0000343 07/02/2019 R$ 50,00
FERNANDA FERREIRA FRANCA RODRIGUES 0000510 0000386 0000344 07/02/2019 R$ 40,00
FLAVIO SANTOS PEREIRA 0000516 0000387 0000345 07/02/2019 R$ 100,00
CLEITON MENDES CARVALHO ME 0000312 0000234 0000177 08/02/2019 R$ 3.500,00
CLEITON MENDES CARVALHO ME 0000313 0000241 0000216 08/02/2019 R$ 3.500,00
CLEITON MENDES CARVALHO ME 0000314 0000039 08/02/2019 R$ 7.000,00
RICARDO MARTINHO PEREIRA LOPES & CIA LTDA-ME 0000335 0000344 0000109 08/02/2019 R$ 12.520,00
RICARDO MARTINHO PEREIRA LOPES & CIA LTDA-ME 0000336 0000345 0000107 08/02/2019 R$ 1.152,00
RICARDO MARTINHO PEREIRA LOPES & CIA LTDA-ME 0000337 0000346 0000218 08/02/2019 R$ 1.600,00
ASSOCIAÇÃO DE CATADORES DE MATERIAIS RECICLÁVEIS DE BANDEIRA 0000346 0000359 0000325 08/02/2019 R$ 10.495,00
AUTO POSTO GABY LTDA 0000347 0002535 08/02/2019 R$ 651,00
AUTO POSTO GABY LTDA 0000348 0002534 08/02/2019 R$ 434,00
AUTO POSTO GABY LTDA 0000349 0002534 08/02/2019 R$ 434,00
AUTO POSTO GABY LTDA 0000350 0002534 08/02/2019 R$ 1.603,01
AUTO POSTO GABY LTDA 0000351 0002534 08/02/2019 R$ 694,40
AUTO POSTO GABY LTDA 0000352 0002534 08/02/2019 R$ 952,84
AUTO POSTO GABY LTDA 0000353 0002534 08/02/2019 R$ 2.167,82
AUTO POSTO GABY LTDA 0000354 0002534 08/02/2019 R$ 578,34
AUTO POSTO GABY LTDA 0000355 0002534 08/02/2019 R$ 952,54
AUTO POSTO GABY LTDA 0000356 0002534 08/02/2019 R$ 694,40
AUTO POSTO GABY LTDA 0000357 0002534 08/02/2019 R$ 868,00
AUTO POSTO GABY LTDA 0000358 0002534 08/02/2019 R$ 868,00
AUTO POSTO GABY LTDA 0000359 0002534 08/02/2019 R$ 2.088,36
AUTO POSTO GABY LTDA 0000360 0002534 08/02/2019 R$ 1.085,00
AUTO POSTO GABY LTDA 0000361 0002534 08/02/2019 R$ 3.252,11
AUTO POSTO GABY LTDA 0000362 0002534 08/02/2019 R$ 953,49
POSTO ALVORADA 0000375 0002237 08/02/2019 R$ 749,38
POSTO ALVORADA 0000376 0002238 08/02/2019 R$ 845,92
ASSOCIAÇÃO DE CATADORES DE MATERIAIS RECICLÁVEIS DE BANDEIRA 0000378 0000943 08/02/2019 R$ 10.495,00
FUNDACAO FACEV 0000379 0000202 0000174 08/02/2019 R$ 2.062,50
Adalberto Gonçalves Pires Advogados Associados 0000380 0000260 0000262 08/02/2019 R$ 5.500,00
AUGUSTO PAULINO - SOCIEDADE INDIVIDUAL DE ADVOCACIA 0000381 0001688 08/02/2019 R$ 5.000,00
E&L Produções de Software LTDA 0000382 0000270 0000171 08/02/2019 R$ 2.150,00
ALEXANDRE GOMES DE OLIVEIRA PJ 0000383 0000069 0000031 08/02/2019 R$ 4.500,00
ALEXANDRE GOMES DE OLIVEIRA PJ 0000384 0000070 0000032 08/02/2019 R$ 4.000,00
FOLHA DE PAGAMENTO DE SERVIDORES 0000434 0000541 08/02/2019 R$ 16.710,34
FOLHA DE PAGAMENTO DE SERVIDORES 0000435 0000543 08/02/2019 R$ 2.483,80
FOLHA DE PAGAMENTO DE SERVIDORES 0000436 0000544 08/02/2019 R$ 984,40
FOLHA DE PAGAMENTO DE SERVIDORES 0000437 0000545 08/02/2019 R$ 6.661,52
FOLHA DE PAGAMENTO DE SERVIDORES 0000438 0000189 08/02/2019 R$ 4.645,28
FOLHA DE PAGAMENTO DE SERVIDORES 0000439 0000190 08/02/2019 R$ 2.423,05
FOLHA DE PAGAMENTO DE SERVIDORES 0000440 0002817 08/02/2019 R$ 2.406,42
FOLHA DE PAGAMENTO DE SERVIDORES 0000441 0002818 08/02/2019 R$ 4.011,68
FOLHA DE PAGAMENTO DE SERVIDORES 0000442 0002819 08/02/2019 R$ 3.175,89
FOLHA DE PAGAMENTO DE SERVIDORES 0000443 0000095 0000133 08/02/2019 R$ 2.888,11
FOLHA DE PAGAMENTO DE SERVIDORES 0000444 0000542 08/02/2019 R$ 4.939,03
FOLHA DE PAGAMENTO DE SERVIDORES 0000445 0000545 08/02/2019 R$ 11.845,82
FOLHA DE PAGAMENTO DE SERVIDORES 0000446 0000546 08/02/2019 R$ 3.460,90
FOLHA DE PAGAMENTO DE SERVIDORES 0000447 0000542 08/02/2019 R$ 1.412,13
FOLHA DE PAGAMENTO DE SERVIDORES 0000448 0000541 08/02/2019 R$ 63.797,32
FOLHA DE PAGAMENTO DE SERVIDORES 0000449 0000541 08/02/2019 R$ 2.780,04
FOLHA DE PAGAMENTO DE SERVIDORES 0000459 0000158 0000187 08/02/2019 R$ 2.017,16
FOLHA DE PAGAMENTO DE SERVIDORES 0000479 0002827 08/02/2019 R$ 1.118,52
FOLHA DE PAGAMENTO DE SERVIDORES 0000480 0002828 08/02/2019 R$ 877,26
FOLHA DE PAGAMENTO DE SERVIDORES 0000481 0000230 08/02/2019 R$ 5.326,32
FOLHA DE PAGAMENTO DE SERVIDORES 0000482 0000231 08/02/2019 R$ 1.796,36
FOLHA DE PAGAMENTO DE SERVIDORES 0000483 0000232 08/02/2019 R$ 2.626,77
FOLHA DE PAGAMENTO DE SERVIDORES 0000484 0000233 08/02/2019 R$ 2.342,59
FOLHA DE PAGAMENTO DE SERVIDORES 0000485 0000233 08/02/2019 R$ 1.886,98
FOLHA DE PAGAMENTO DE SERVIDORES 0000486 0000237 08/02/2019 R$ 1.380,00
FOLHA DE PAGAMENTO DE SERVIDORES 0000487 0002531 08/02/2019 R$ 2.017,16
FOLHA DE PAGAMENTO DE SERVIDORES 0000488 0000240 08/02/2019 R$ 2.989,96
MARINAN FERREIRA DOS SANTOS 0000491 0000055 08/02/2019 R$ 900,00
MARINAN FERREIRA DOS SANTOS 0000492 0000055 08/02/2019 R$ 900,00
MARINAN FERREIRA DOS SANTOS 0000493 0000055 08/02/2019 R$ 900,00
FOLHA DE PAGAMENTO DE SERVIDORES 0000514 0000249 08/02/2019 R$ 1.154,75
FOLHA DE PAGAMENTO DE SERVIDORES 0000515 0000248 08/02/2019 R$ 2.062,18
FOLHA DE PAGAMENTO DE SERVIDORES 0000517 0000251 08/02/2019 R$ 1.777,02
MARCELINO FERREIRA LOPES 0000518 0000388 0000347 08/02/2019 R$ 130,00
FLAVIO SANTOS PEREIRA 0000519 0000389 0000345 08/02/2019 R$ 100,00
MARCELINO FERREIRA LOPES 0000520 0000390 0000348 08/02/2019 R$ 280,00
JOSE MAZILIO FONSECA ROCHA 0000521 0000391 0000349 08/02/2019 R$ 400,00
JOSE MAZILIO FONSECA ROCHA 0000522 0000392 0000350 08/02/2019 R$ 390,00
TMH SERVICOS MEDICOS LTDA 0000524 0000032 08/02/2019 R$ 20.325,00
FOLHA DE PAGAMENTO DE SERVIDORES 0000536 0002825 08/02/2019 R$ 1.778,11
FOLHA DE PAGAMENTO DE SERVIDORES 0000537 0000213 08/02/2019 R$ 3.524,58
FOLHA DE PAGAMENTO DE SERVIDORES 0000538 0000211 08/02/2019 R$ 1.866,89
FOLHA DE PAGAMENTO DE SERVIDORES 0000539 0000213 08/02/2019 R$ 18.342,48
FOLHA DE PAGAMENTO DE SERVIDORES 0000540 0000214 08/02/2019 R$ 2.017,16
FOLHA DE PAGAMENTO DE SERVIDORES 0000541 0000215 08/02/2019 R$ 2.780,76
FOLHA DE PAGAMENTO DE SERVIDORES 0000542 0000216 08/02/2019 R$ 1.789,17
FOLHA DE PAGAMENTO DE SERVIDORES 0000543 0000217 08/02/2019 R$ 2.017,16
FOLHA DE PAGAMENTO DE SERVIDORES 0000544 0000222 08/02/2019 R$ 1.750,57
FOLHA DE PAGAMENTO DE SERVIDORES 0000545 0000225 08/02/2019 R$ 447,36
FOLHA DE PAGAMENTO DE SERVIDORES 0000546 0000226 08/02/2019 R$ 1.051,44
FOLHA DE PAGAMENTO DE SERVIDORES 0000547 0000228 08/02/2019 R$ 2.397,00
FOLHA DE PAGAMENTO DE SERVIDORES 0000576 0000174 08/02/2019 R$ 2.626,77
FOLHA DE PAGAMENTO DE SERVIDORES 0000577 0000173 08/02/2019 R$ 3.409,24
FOLHA DE PAGAMENTO DE SERVIDORES 0000578 0000176 08/02/2019 R$ 1.690,22
FOLHA DE PAGAMENTO DE SERVIDORES 0000579 0000207 08/02/2019 R$ 542,69
FOLHA DE PAGAMENTO DE SERVIDORES 0000580 0000191 08/02/2019 R$ 4.099,90
FOLHA DE PAGAMENTO DE SERVIDORES 0000581 0000185 08/02/2019 R$ 1.150,27
FOLHA DE PAGAMENTO DE SERVIDORES 0000582 0000184 08/02/2019 R$ 4.447,31
FOLHA DE PAGAMENTO DE SERVIDORES 0000583 0000180 08/02/2019 R$ 454,83
FOLHA DE PAGAMENTO DE SERVIDORES 0000584 0000171 08/02/2019 R$ 1.873,16
FOLHA DE PAGAMENTO DE SERVIDORES 0000585 0000242 08/02/2019 R$ 704,33
FOLHA DE PAGAMENTO DE SERVIDORES 0000586 0000244 08/02/2019 R$ 918,68
FOLHA DE PAGAMENTO DE SERVIDORES 0000587 0000245 08/02/2019 R$ 918,68
FOLHA DE PAGAMENTO DE SERVIDORES 0000588 0000246 08/02/2019 R$ 918,68
FOLHA DE PAGAMENTO DE SERVIDORES 0000589 0000247 08/02/2019 R$ 1.380,00
ANTONIO RODRIGUES DOS SANTOS 0000627 0000394 0000351 08/02/2019 R$ 500,00
PASEP 0000702 0000493 0000008 08/02/2019 R$ 6.467,22
INSTITUTO NACIONAL SEGURO SOCIAL 0000703 0000494 0000253 08/02/2019 R$ 11.654,78
EMATERMG 0000704 0000495 0000011 08/02/2019 R$ 1.293,58
CONFEDERACAO NACIONAL DE MUNICIPIO CNM 0000705 0000496 0000012 08/02/2019 R$ 640,00
PASEP 0000755 0000624 0000008 08/02/2019 R$ 12,49
FOLHA DE PAGAMENTO DE SERVIDORES 0001005 0000115 0000144 08/02/2019 R$ 1.245,06
FOLHA DE PAGAMENTO DE SERVIDORES 0001006 0000081 0000123 08/02/2019 R$ 1.327,18
FOLHA DE PAGAMENTO DE SERVIDORES 0001007 0000165 0000192 08/02/2019 R$ 2.626,77
FOLHA DE PAGAMENTO DE SERVIDORES 0001008 0000163 0000190 08/02/2019 R$ 1.437,38
FOLHA DE PAGAMENTO DE SERVIDORES 0001009 0000073 0000115 08/02/2019 R$ 647,43
FOLHA DE PAGAMENTO DE SERVIDORES 0001010 0000112 0000141 08/02/2019 R$ 2.612,55
FOLHA DE PAGAMENTO DE SERVIDORES 0001011 0000124 0000152 08/02/2019 R$ 2.113,05
FOLHA DE PAGAMENTO DE SERVIDORES 0001012 0000075 0000117 08/02/2019 R$ 2.207,53
FOLHA DE PAGAMENTO DE SERVIDORES 0001013 0000078 0000120 08/02/2019 R$ 2.802,80
FOLHA DE PAGAMENTO DE SERVIDORES 0001014 0000080 0000122 08/02/2019 R$ 979,35
FOLHA DE PAGAMENTO DE SERVIDORES 0001015 0000082 0000124 08/02/2019 R$ 2.634,87
FOLHA DE PAGAMENTO DE SERVIDORES 0001016 0000083 0000124 08/02/2019 R$ 851,47
FOLHA DE PAGAMENTO DE SERVIDORES 0001017 0000085 0000126 08/02/2019 R$ 2.032,97
FOLHA DE PAGAMENTO DE SERVIDORES 0001018 0000088 0000129 08/02/2019 R$ 2.127,27
FOLHA DE PAGAMENTO DE SERVIDORES 0001019 0000090 0000130 08/02/2019 R$ 293,71
FOLHA DE PAGAMENTO DE SERVIDORES 0001020 0000089 0000130 08/02/2019 R$ 2.641,88
FOLHA DE PAGAMENTO DE SERVIDORES 0001021 0000091 0000131 08/02/2019 R$ 2.573,16
BANCO DO BRASIL 0001030 0000841 0000018 08/02/2019 R$ 10,18
PASEP 0001035 0000846 0000008 08/02/2019 R$ 0,09
FOLHA DE PAGAMENTO DE SERVIDORES 0001123 0000170 0000197 08/02/2019 R$ 2.062,18
FOLHA DE PAGAMENTO DE SERVIDORES 0001124 0000152 0000181 08/02/2019 R$ 1.880,49
FOLHA DE PAGAMENTO DE SERVIDORES 0001125 0000151 0000180 08/02/2019 R$ 3.502,74
FOLHA DE PAGAMENTO DE SERVIDORES 0001126 0000127 0000155 08/02/2019 R$ 2.592,59
INSTITUTO NACIONAL SEGURO SOCIAL 0001834 0000308 08/02/2019 R$ 1.028,10
INSTITUTO NACIONAL SEGURO SOCIAL 0001835 0000308 08/02/2019 R$ 1.859,56
INSTITUTO NACIONAL SEGURO SOCIAL 0001838 0002830 08/02/2019 R$ 2.138,40
INSTITUTO NACIONAL SEGURO SOCIAL 0001839 0002831 08/02/2019 R$ 360,00
INSTITUTO NACIONAL SEGURO SOCIAL 0001840 0002832 08/02/2019 R$ 550,00
INSTITUTO NACIONAL SEGURO SOCIAL 0001841 0000265 08/02/2019 R$ 2.366,49
INSTITUTO NACIONAL SEGURO SOCIAL 0001842 0000266 08/02/2019 R$ 725,75
INSTITUTO NACIONAL SEGURO SOCIAL 0001843 0000267 08/02/2019 R$ 2.482,97
INSTITUTO NACIONAL SEGURO SOCIAL 0001844 0000268 08/02/2019 R$ 1.068,22
INSTITUTO NACIONAL SEGURO SOCIAL 0001845 0000270 08/02/2019 R$ 763,41
INSTITUTO NACIONAL SEGURO SOCIAL 0001848 0002829 08/02/2019 R$ 2.130,00
INSTITUTO NACIONAL SEGURO SOCIAL 0001849 0000271 08/02/2019 R$ 2.467,26
INSTITUTO NACIONAL SEGURO SOCIAL 0001850 0000272 08/02/2019 R$ 1.056,26
INSTITUTO NACIONAL SEGURO SOCIAL 0001851 0000273 08/02/2019 R$ 190,95
INSTITUTO NACIONAL SEGURO SOCIAL 0001852 0000274 08/02/2019 R$ 222,67
INSTITUTO NACIONAL SEGURO SOCIAL 0001853 0000275 08/02/2019 R$ 700,20
INSTITUTO NACIONAL SEGURO SOCIAL 0001854 0000827 08/02/2019 R$ 519,71
INSTITUTO NACIONAL SEGURO SOCIAL 0001855 0000264 08/02/2019 R$ 11.334,36
INSTITUTO NACIONAL SEGURO SOCIAL 0002117 0001701 0000017 08/02/2019 R$ 1.683,01
MIX LOCACOES E CONSTRUCOES LTDA-ME 0000345 0000357 0000319 11/02/2019 R$ 16.212,21
NELZIRA FERRAZ DA SILVA - ME 0000388 0002402 11/02/2019 R$ 2.748,00
NELZIRA FERRAZ DA SILVA - ME 0000389 0002405 11/02/2019 R$ 1.520,00
NELZIRA FERRAZ DA SILVA - ME 0000390 0002404 11/02/2019 R$ 2.700,00
NELZIRA FERRAZ DA SILVA - ME 0000391 0002406 11/02/2019 R$ 2.180,00
PREV. BAND. 0000451 0000180 0000206 11/02/2019 R$ 20.554,61
SUZANA DOS SANTOS SOUSA 0000500 0000578 11/02/2019 R$ 200,00
CLEBER PETRONIO FONSECA PRATES 0000523 0000393 0000327 11/02/2019 R$ 150,00
MICHAEL DE OLIVEIRA 0000653 0000401 0000360 11/02/2019 R$ 390,00
KURUMA VEICULOS S.A. 0000677 0000426 0000371 11/02/2019 R$ 1.013,26
KURUMA VEICULOS S.A. 0000680 0000429 0000368 11/02/2019 R$ 444,11
CISNORJE 0002106 0001693 0000927 11/02/2019 R$ 249,35
CISNORJE 0002107 0001694 0000928 11/02/2019 R$ 249,35
CISNORJE 0002108 0001695 0000929 11/02/2019 R$ 249,35
AUTO POSTO GABY LTDA 0000363 0002534 12/02/2019 R$ 1.085,00
AUTO POSTO GABY LTDA 0000364 0002534 12/02/2019 R$ 1.085,00
AUTO POSTO GABY LTDA 0000365 0002534 12/02/2019 R$ 3.074,13
AUTO POSTO GABY LTDA 0000366 0002534 12/02/2019 R$ 2.097,94
AUTO POSTO GABY LTDA 0000367 0002534 12/02/2019 R$ 1.813,58
POSTO ALVORADA 0000368 0002743 12/02/2019 R$ 70,00
POSTO ALVORADA 0000369 0002809 12/02/2019 R$ 40,50
POSTO ALVORADA 0000370 0002236 12/02/2019 R$ 61,39
POSTO ALVORADA 0000371 0002233 12/02/2019 R$ 45,47
POSTO ALVORADA 0000372 0002233 12/02/2019 R$ 53,90
POSTO ALVORADA 0000373 0002233 12/02/2019 R$ 53,90
POSTO ALVORADA 0000374 0002231 12/02/2019 R$ 161,75
AUGUSTO PAULINO - SOCIEDADE INDIVIDUAL DE ADVOCACIA 0000377 0001688 12/02/2019 R$ 5.000,00
MERCADINHO ESTRELA 0000398 0002777 12/02/2019 R$ 1.752,88
TRANSCALAR-TRANSPORTE ESCOLAR DE CARGAS E LOCAÇÃO DE MÁQUINAS LTDA 0000399 0001452 12/02/2019 R$ 4.395,00
COOPVEL-COOPERATIVA DE TRANSPORTES 0000400 0001023 12/02/2019 R$ 3.113,03
MERCADINHO ESTRELA 0000403 0000211 0000094 12/02/2019 R$ 186,10
MERCADINHO ESTRELA 0000404 0002769 12/02/2019 R$ 223,50
MERCADINHO ESTRELA 0000452 0000210 0000214 12/02/2019 R$ 490,60
MERCADINHO ESTRELA 0000512 0001819 12/02/2019 R$ 234,80
MERCADINHO ESTRELA 0000513 0001821 12/02/2019 R$ 223,50
ANA ALVES DOS SANTOS 0000620 0000354 0000317 12/02/2019 R$ 500,00
SILVIA GOMES DA SILVA 0000621 0001568 12/02/2019 R$ 300,00
TRANSCALAR-TRANSPORTE ESCOLAR DE CARGAS E LOCAÇÃO DE MÁQUINAS LTDA 0000654 0000402 0000285 12/02/2019 R$ 11.956,00
RICARDO MARTINHO PEREIRA LOPES & CIA LTDA-ME 0000655 0000403 0000362 12/02/2019 R$ 6.240,00
RICARDO MARTINHO PEREIRA LOPES & CIA LTDA-ME 0000656 0000404 0000363 12/02/2019 R$ 3.120,00
JESSICA DIAS NEVES 0000659 0000407 0000364 12/02/2019 R$ 30,00
JOSE MAZILIO FONSECA ROCHA 0000660 0000408 0000349 12/02/2019 R$ 100,00
JOSE MAZILIO FONSECA ROCHA 0000661 0000409 0000349 12/02/2019 R$ 30,00
ROBSON ALVES PORTO 0000662 0000410 0000333 12/02/2019 R$ 100,00
MICHAEL DE OLIVEIRA 0000663 0000411 0000361 12/02/2019 R$ 400,00
MARIA APARECIDA LIMA LARANJEIRA 0000664 0000412 0000365 12/02/2019 R$ 40,00
RIO DOCE COMERCIO DE VEICULOS LTDA 0000678 0000427 0000370 12/02/2019 R$ 342,36
RIO DOCE COMERCIO DE VEICULOS LTDA 0000679 0000428 0000369 12/02/2019 R$ 216,54
BANCO DO BRASIL 0000691 0000486 0000018 12/02/2019 R$ 81,44
CEMIG DISTRIBUIÇÃO S.A. 0002112 0001697 0000749 12/02/2019 R$ 8.449,44
LEONARDO TORRES FERRAZ - ME 0000392 0001646 13/02/2019 R$ 2.319,99
LEONARDO TORRES FERRAZ - ME 0000393 0001622 13/02/2019 R$ 2.900,00
MANOELITO GOMES DOS SANTOS 0000394 0000051 13/02/2019 R$ 960,00
MANOELITO GOMES DOS SANTOS 0000395 0000051 13/02/2019 R$ 960,00
MANOELITO GOMES DOS SANTOS 0000396 0000051 13/02/2019 R$ 960,00
MANOELITO GOMES DOS SANTOS 0000397 0000051 13/02/2019 R$ 960,00
SECRETARIA DE ESTADO DE CASA CIVIL E DE RELAÇOES INSTITUCIONAIS 0000401 0000351 0000015 13/02/2019 R$ 442,95
LENAURO GONCALVES 0000402 0000227 0000240 13/02/2019 R$ 302,40
DANIEL MARTINS DOS SANTOS NETO 0000460 0000271 0000263 13/02/2019 R$ 998,00
FOLHA DE PAGAMENTO DE SERVIDORES 0000502 0002319 13/02/2019 R$ 4.351,22
POSTO ALVORADA 0000511 0002232 13/02/2019 R$ 156,36
ANALISES CLINICAS SAO LUCAS LTDA 0000525 0002739 13/02/2019 R$ 775,00
ANALISES CLINICAS SAO LUCAS LTDA 0000526 0002542 13/02/2019 R$ 1.813,00
ANALISES CLINICAS SAO LUCAS LTDA 0000527 0002352 13/02/2019 R$ 1.487,41
WINSTON FRANKLIN SILVA VANDÍ 0000528 0000239 0000025 13/02/2019 R$ 2.549,05
TAHIANA FERREIRA FREITAS 0000529 0000229 0000239 13/02/2019 R$ 1.344,00
OBSON HERINGER MAULAZ 0000530 0000226 0000241 13/02/2019 R$ 7.620,77
MERCADINHO ESTRELA 0000657 0000405 0000357 13/02/2019 R$ 5.431,10
MERCADINHO ESTRELA 0000658 0000406 0000320 13/02/2019 R$ 3.372,61
ECTEMP.BRAS. DE CORREIOS E TELEGRAFOS 0000665 0000417 0000022 13/02/2019 R$ 17,20
ECKO MADEIRAS LTDA 0000666 0000418 0000366 13/02/2019 R$ 3.630,00
CLEBER PETRONIO FONSECA PRATES 0000690 0000452 0000326 13/02/2019 R$ 65,00
FOLHA DE PAGAMENTO DE SERVIDORES 0000692 0000093 0000132 13/02/2019 R$ 1.984,21
FOLHA DE PAGAMENTO DE SERVIDORES 0000693 0000094 0000132 13/02/2019 R$ 649,00
FOLHA DE PAGAMENTO DE SERVIDORES 0000695 0000092 0000132 13/02/2019 R$ 4.468,74
FOLHA DE PAGAMENTO DE SERVIDORES 0000696 0000173 0000199 13/02/2019 R$ 660,07
BANCO DO BRASIL 0000698 0000489 0000018 13/02/2019 R$ 10,18
BANCO DO BRASIL 0000709 0000500 0000018 13/02/2019 R$ 76,05
VB COMERCIAL LTDA - ME 0000462 0000365 0000312 14/02/2019 R$ 240,00
VB COMERCIAL LTDA - ME 0000531 0000364 0000311 14/02/2019 R$ 720,00
LISSA LISBOA ALMEIDA GUSMAO 0000532 0000244 0000260 14/02/2019 R$ 250,00
LISSA LISBOA ALMEIDA GUSMAO 0000533 0000245 0000260 14/02/2019 R$ 500,00
LISSA LISBOA ALMEIDA GUSMAO 0000534 0000242 0000259 14/02/2019 R$ 1.000,00
LISSA LISBOA ALMEIDA GUSMAO 0000535 0000243 0000259 14/02/2019 R$ 2.000,00
INSTITUTO NACIONAL SEGURO SOCIAL 0000630 0000188 0000220 14/02/2019 R$ 374,15
CLEUCY VIEIRA DA SILVA 0000631 0000240 0000258 14/02/2019 R$ 403,20
COPANOR 0000671 0000420 0000271 14/02/2019 R$ 88,53
COPANOR 0000672 0000421 0000271 14/02/2019 R$ 16,12
COPANOR 0000673 0000422 0000271 14/02/2019 R$ 18,99
COPANOR 0000674 0000423 0000265 14/02/2019 R$ 55,43
COPANOR 0000675 0000424 0000265 14/02/2019 R$ 55,43
COPANOR 0000676 0000425 0000265 14/02/2019 R$ 55,43
CEMIG DISTRIBUIÇÃO S.A. 0000686 0000441 0000272 14/02/2019 R$ 1.197,49
ECKO MADEIRAS LTDA 0000667 0000418 0000366 15/02/2019 R$ 3.630,00
ADIVALDO MARES DA ROCHA 0000681 0000430 0000340 15/02/2019 R$ 350,00
ADIVALDO MARES DA ROCHA 0000682 0000431 0000341 15/02/2019 R$ 390,00
SILVIO DE ALMEIDA JUNIOR ME 0000685 0000436 0000378 15/02/2019 R$ 1.190,00
AMIDES CARDOSO DE ALMEIDA 0000724 0000540 0000462 15/02/2019 R$ 20,00
GIRLENE MOREIRA GOMES SANTOS 0000725 0000541 0000463 15/02/2019 R$ 20,00
GILMAR AMARAL NOVAIS 0000787 0002337 15/02/2019 R$ 220,00
Nome não informado pelo SICOM. 0000905 0002640 15/02/2019 R$ 1.072,70
CLEIDIMAR RODRIGUES 0000906 0002635 15/02/2019 R$ 300,00
LUSINEIDE MARIA DE JESUS 0000907 0002734 15/02/2019 R$ 450,00
JOSIMAR FERREIRA LIMA 0001092 0000355 0000318 15/02/2019 R$ 200,00
IPE ILUMINAÇÃO E ELETRIFICAÇÃO EIRELI EPP 0000670 0000283 0000215 18/02/2019 R$ 1.315,59
SECRETARIA DE ESTADO DE CASA CIVIL E DE RELAÇOES INSTITUCIONAIS 0000688 0000445 0000015 18/02/2019 R$ 265,77
CLEBER PETRONIO FONSECA PRATES 0000710 0000507 0000326 18/02/2019 R$ 100,00
AMIDES CARDOSO DE ALMEIDA 0000711 0000508 0000334 18/02/2019 R$ 65,00
FLAVIO SANTOS PEREIRA 0000712 0000509 0000345 18/02/2019 R$ 100,00
ZANGELA MARTA FERREIRA DOS SANTOS 0000788 0000419 0000367 18/02/2019 R$ 1.170,00
DIEGO OLIVEIRA FREITAS 0000797 0000443 0000383 18/02/2019 R$ 1.901,38
COPANOR 0000903 0000296 18/02/2019 R$ 23,56
TELEMAR 0000904 0000078 18/02/2019 R$ 10,40
SEGURADORA LIDER DOS CONSORCIOS DO SEGURO DPVAT S.A 0000939 0000746 0000534 18/02/2019 R$ 24,99
SEGURADORA LIDER DOS CONSORCIOS DO SEGURO DPVAT S.A 0000940 0000747 0000535 18/02/2019 R$ 103,39
BANCO DO BRASIL 0001069 0000852 0000018 18/02/2019 R$ 10,18
CEMIG DISTRIBUIÇÃO S.A. 0001687 0001327 0000749 18/02/2019 R$ 2.472,54
BASICOLOR LABORATORIO FOTOGRAFICO BASICOR LTDAME 0000687 0000444 0000379 19/02/2019 R$ 1.840,00
BANCO DO BRASIL 0000694 0000487 0000018 19/02/2019 R$ 132,34
BANCO DO BRASIL 0000697 0000488 0000021 19/02/2019 R$ 71,26
BANCO DO BRASIL 0000699 0000490 0000020 19/02/2019 R$ 122,16
BANCO DO BRASIL 0000700 0000491 0000019 19/02/2019 R$ 61,08
BANCO DO BRASIL 0000701 0000492 0000018 19/02/2019 R$ 192,41
KURUMA VEICULOS S.A. 0000713 0000521 0000422 19/02/2019 R$ 143,01
KURUMA VEICULOS S.A. 0000714 0000522 0000423 19/02/2019 R$ 1.091,97
CLIMACO MARTINS DOS SANTOS PEREIRA 0000716 0000527 0000427 19/02/2019 R$ 30,00
VB COMERCIAL LTDA - ME 0000761 0000231 0000069 19/02/2019 R$ 666,80
SANDRA DALECIO DOS SANTOS 0000789 0002735 19/02/2019 R$ 100,00
COPANOR 0000866 0000549 19/02/2019 R$ 21,17
TELEMAR 0000870 0000416 0000279 19/02/2019 R$ 101,04
BR AUTO PEÇAS 0000871 0002055 19/02/2019 R$ 1.325,53
JOSE ROBERTO BARBOSA ME 0000872 0001773 19/02/2019 R$ 1.283,81
FOLHA DE PAGAMENTO DE SERVIDORES 0000873 0000432 0000115 19/02/2019 R$ 3.766,29
FOLHA DE PAGAMENTO DE SERVIDORES 0000874 0000433 0000115 19/02/2019 R$ 2.730,83
CEMIG DISTRIBUIÇÃO S.A. 0000875 0000273 0000274 19/02/2019 R$ 63,68
CEMIG DISTRIBUIÇÃO S.A. 0000876 0000272 0000274 19/02/2019 R$ 125,03
TELEMAR 0000877 0000030 0000057 19/02/2019 R$ 780,21
CEMIG DISTRIBUIÇÃO S.A. 0000878 0000004 0000004 19/02/2019 R$ 52,79
CEMIG DISTRIBUIÇÃO S.A. 0000879 0000003 0000003 19/02/2019 R$ 146,12
CEMIG DISTRIBUIÇÃO S.A. 0000880 0000002 0000002 19/02/2019 R$ 40,41
CEMIG DISTRIBUIÇÃO S.A. 0000881 0000526 19/02/2019 R$ 47,84
L C ARTIGOS ESPORTIVOS LTDA - EPP 0000882 0001143 19/02/2019 R$ 1.332,00
CEMIG DISTRIBUIÇÃO S.A. 0000883 0000001 0000001 19/02/2019 R$ 442,35
COPANOR 0000884 0000274 0000275 19/02/2019 R$ 6,06
COPANOR 0000885 0000275 0000275 19/02/2019 R$ 10,03
COPANOR 0000886 0000277 0000275 19/02/2019 R$ 51,10
COPANOR 0000887 0000279 0000275 19/02/2019 R$ 40,99
COPANOR 0000888 0000280 0000266 19/02/2019 R$ 19,73
COPANOR 0000889 0000281 0000266 19/02/2019 R$ 18,88
COPANOR 0000890 0000295 19/02/2019 R$ 21,00
COPANOR 0000891 0000295 19/02/2019 R$ 21,00
COPANOR 0000892 0000527 19/02/2019 R$ 8,17
COPANOR 0000893 0000527 19/02/2019 R$ 7,73
COPANOR 0000894 0000005 0000005 19/02/2019 R$ 5,47
COPANOR 0000895 0000006 0000006 19/02/2019 R$ 5,59
COPANOR 0000896 0000007 0000007 19/02/2019 R$ 5,20
COPANOR 0000897 0000278 0000268 19/02/2019 R$ 163,24
COPANOR 0000898 0000276 0000268 19/02/2019 R$ 47,82
COPANOR 0000899 0000549 19/02/2019 R$ 201,72
COPANOR 0000900 0000294 19/02/2019 R$ 706,34
DEPARTAMENTO DE POLICIA RODOVIARIA FEDERAL 0000901 0000282 0000283 19/02/2019 R$ 104,13
COPANOR 0000902 0000294 19/02/2019 R$ 1.226,64
RANGEL OLIVEIRA GOMES AMARAL 0000941 0000748 0000536 19/02/2019 R$ 80,00
SANDRO DOS SANTOS LIMA 0001076 0000228 0000238 19/02/2019 R$ 403,20
SECRETARIA DE ESTADO DA FAZENDA DE MINAS GERAIS 0002113 0001698 0000948 19/02/2019 R$ 104,12
SECRETARIA DE ESTADO DA FAZENDA DE MINAS GERAIS 0002115 0001699 0000949 19/02/2019 R$ 104,12
AMMASSOCIACAO MINEIRA DE MUNICIPIOS 0000706 0000497 0000013 20/02/2019 R$ 620,00
EMATERMG 0000707 0000498 0000011 20/02/2019 R$ 1.293,58
PASEP 0000708 0000499 0000008 20/02/2019 R$ 624,63
RENATO AGUIAR FIGUEIREDO - ME 0000715 0000524 0000425 20/02/2019 R$ 360,00
ROBSON ALVES PORTO 0000717 0000528 0000333 20/02/2019 R$ 100,00
JOSE MAZILIO FONSECA ROCHA 0000718 0000529 0000349 20/02/2019 R$ 100,00
RENATO AGUIAR FIGUEIREDO - ME 0000719 0000533 0000431 20/02/2019 R$ 3.027,06
RENATO AGUIAR FIGUEIREDO - ME 0000720 0000534 0000430 20/02/2019 R$ 4.431,00
RENATO AGUIAR FIGUEIREDO - ME 0000721 0000535 0000432 20/02/2019 R$ 3.761,70
RENATO AGUIAR FIGUEIREDO - ME 0000722 0000536 0000433 20/02/2019 R$ 702,00
PASEP 0000756 0000625 0000008 20/02/2019 R$ 3,18
POSTO ALVORADA 0000798 0002232 20/02/2019 R$ 920,17
POSTO ALVORADA 0000799 0002228 20/02/2019 R$ 728,65
PREV. BAND. 0000800 0000181 0000207 20/02/2019 R$ 7.749,77
POSTO ALVORADA 0000827 0000316 0000243 20/02/2019 R$ 2.002,49
JL CANDELAS PRODUTOES DE LIMPEZA - ME 0000852 0002201 20/02/2019 R$ 175,40
JL CANDELAS PRODUTOES DE LIMPEZA - ME 0000853 0001811 20/02/2019 R$ 141,50
JL CANDELAS PRODUTOES DE LIMPEZA - ME 0000854 0001814 20/02/2019 R$ 118,80
PADARIA PEREIRA 0000855 0001399 20/02/2019 R$ 160,40
PADARIA PEREIRA 0000856 0001630 20/02/2019 R$ 740,00
BYALNET INFORMATICA LTDA 0000857 0002275 20/02/2019 R$ 166,20
BYALNET INFORMATICA LTDA 0000858 0000609 20/02/2019 R$ 385,00
BYALNET INFORMATICA LTDA 0000859 0000608 20/02/2019 R$ 393,50
NELZIRA FERRAZ DA SILVA - ME 0000864 0000217 0000098 20/02/2019 R$ 3.899,00
BEATRIZ OLIVEIRA FREITAS 09348532669 - ME 0000867 0000343 0000030 20/02/2019 R$ 8.995,00
CEMIG DISTRIBUIÇÃO S.A. 0000868 0000414 0000273 20/02/2019 R$ 423,06
TELEMAR 0000869 0000413 0000279 20/02/2019 R$ 92,27
POSTO ALVORADA 0000976 0000319 0000234 20/02/2019 R$ 1.350,45
PASEP 0001036 0000847 0000008 20/02/2019 R$ 0,72
BANCO DO BRASIL 0001040 0000851 0000018 20/02/2019 R$ 10,18
RENATO CAMPOS GUIMARÃES - ME 0001074 0001903 20/02/2019 R$ 900,00
INSTITUTO NACIONAL SEGURO SOCIAL 0002110 0001696 0000947 20/02/2019 R$ 16,57
JANSER PEREIRA DE SOUSA 0000726 0000542 0000464 21/02/2019 R$ 20,00
ANA PAULA SANTOS 0000790 0000038 0000064 21/02/2019 R$ 580,00
VANILDO FERREIRA SILVA 0000791 0000034 0000060 21/02/2019 R$ 834,00
BANCO DO BRASIL 0001029 0000840 0000019 21/02/2019 R$ 30,54
PRISMA PLACAS AUTOMOTIVAS E COMUNICACAO VISUAL LTDA - ME 0000723 0000538 0000434 22/02/2019 R$ 250,00
PREV. BAND. 0000727 0000543 0000264 22/02/2019 R$ 395,54
PREV. BAND. 0000728 0000544 0000264 22/02/2019 R$ 205,53
PREV. BAND. 0000729 0000545 0000264 22/02/2019 R$ 521,66
PREV. BAND. 0000730 0000546 0000264 22/02/2019 R$ 122,78
PREV. BAND. 0000731 0000547 0000264 22/02/2019 R$ 156,67
PREV. BAND. 0000732 0000548 0000264 22/02/2019 R$ 76,71
PREV. BAND. 0000733 0000549 0000264 22/02/2019 R$ 79,96
PREV. BAND. 0000734 0000550 0000264 22/02/2019 R$ 245,75
PREV. BAND. 0000735 0000551 0000264 22/02/2019 R$ 3,69
PREV. BAND. 0000736 0000552 0000264 22/02/2019 R$ 17,96
PREV. BAND. 0000737 0000553 0000264 22/02/2019 R$ 6,43
PREV. BAND. 0000738 0000554 0000264 22/02/2019 R$ 17,37
PREV. BAND. 0000739 0000555 0000264 22/02/2019 R$ 24,59
PREV. BAND. 0000740 0000556 0000264 22/02/2019 R$ 20,70
FLAVIO SANTOS PEREIRA 0000741 0000557 0000345 22/02/2019 R$ 100,00
JANSER PEREIRA DE SOUSA 0000742 0000558 0000465 22/02/2019 R$ 20,00
GIRLENE MOREIRA GOMES SANTOS 0000743 0000559 0000466 22/02/2019 R$ 20,00
CEMIG DISTRIBUIÇÃO S.A. 0000744 0000560 0000277 22/02/2019 R$ 65,30
CEMIG DISTRIBUIÇÃO S.A. 0000745 0000561 0000277 22/02/2019 R$ 47,84
CEMIG DISTRIBUIÇÃO S.A. 0000746 0000562 0000277 22/02/2019 R$ 52,79
COPANOR 0000747 0000563 0000265 22/02/2019 R$ 55,43
SEFORA TRINDADE SOUZA - ME 0000751 0000594 0000491 22/02/2019 R$ 58,00
NEILDE SOUSA QUADROS 0000796 0000057 0000078 22/02/2019 R$ 480,00
POSTO ALVORADA 0000826 0000322 0000235 22/02/2019 R$ 66,04
POSTO ALVORADA 0000828 0000329 0000236 22/02/2019 R$ 1.634,18
POSTO ALVORADA 0000829 0000325 0000245 22/02/2019 R$ 16,12
POSTO ALVORADA 0000830 0000326 0000245 22/02/2019 R$ 124,18
POSTO ALVORADA 0000834 0000313 0000245 22/02/2019 R$ 180,00
POSTO ALVORADA 0000835 0000312 0000245 22/02/2019 R$ 255,00
POSTO ALVORADA 0000836 0000315 0000245 22/02/2019 R$ 284,20
POSTO ALVORADA 0000837 0000317 0000244 22/02/2019 R$ 582,13
POSTO ALVORADA 0000838 0000318 0000244 22/02/2019 R$ 581,75
POSTO ALVORADA 0000839 0000327 0000236 22/02/2019 R$ 441,48
POSTO ALVORADA 0000840 0000328 0000236 22/02/2019 R$ 1.844,74
POSTO ALVORADA 0000841 0000324 0000245 22/02/2019 R$ 570,70
AUTO POSTO GABY LTDA 0000845 0000065 0000051 22/02/2019 R$ 1.025,75
AUTO POSTO GABY LTDA 0000846 0000066 0000051 22/02/2019 R$ 1.356,85
HERMES SILVA CORTES 0000942 0000749 0000537 22/02/2019 R$ 20,00
JOSE MAZILIO FONSECA ROCHA 0000943 0000750 0000349 22/02/2019 R$ 350,00
JOSE MAZILIO FONSECA ROCHA 0000944 0000751 0000350 22/02/2019 R$ 260,00
POSTO ALVORADA 0000974 0000320 0000237 22/02/2019 R$ 751,15
POSTO ALVORADA 0000975 0000321 0000237 22/02/2019 R$ 718,00
DIARIOS PUBLICIDADE TRANSPORTE E LOGISTICA LDTA 0000978 0000526 0000426 22/02/2019 R$ 400,00
ALZENIR MARIA DA SILVA 0000979 0000051 0000072 22/02/2019 R$ 520,00
PASEP 0001028 0000839 0000008 22/02/2019 R$ 105,60
BANCO DO BRASIL 0001038 0000849 0000018 22/02/2019 R$ 213,21
ECTEMP.BRAS. DE CORREIOS E TELEGRAFOS 0000749 0000581 0000022 25/02/2019 R$ 68,96
SECRETARIA DE ESTADO DE CASA CIVIL E DE RELAÇOES INSTITUCIONAIS 0000750 0000582 0000015 25/02/2019 R$ 265,77
MERCADINHO ESTRELA 0000792 0000502 0000385 25/02/2019 R$ 347,00
MERCADINHO ESTRELA 0000793 0000504 0000374 25/02/2019 R$ 694,00
MERCADINHO ESTRELA 0000794 0000503 0000377 25/02/2019 R$ 499,00
JL CANDELAS PRODUTOES DE LIMPEZA - ME 0000795 0000453 0000375 25/02/2019 R$ 590,00
LAZARO SANTOS AMORIN MOREIRA 0001832 0001545 0000851 25/02/2019 R$ 50,00
JANSER PEREIRA DE SOUSA 0002072 0001642 0000921 25/02/2019 R$ 100,00
CAIXA ECONIMICA FEDERAL 0002103 0001687 0000946 25/02/2019 R$ 42,00
SECRETARIA DE ESTADO DE CASA CIVIL E DE RELAÇOES INSTITUCIONAIS 0000752 0000603 0000015 26/02/2019 R$ 354,36
COPANOR 0000753 0000604 0000265 26/02/2019 R$ 55,43
COPANOR 0000754 0000605 0000265 26/02/2019 R$ 55,43
MANOELITO GOMES DOS SANTOS 0000860 0000051 26/02/2019 R$ 960,00
MANOELITO GOMES DOS SANTOS 0000861 0000051 26/02/2019 R$ 960,00
FLAVIO SANTOS PEREIRA 0000945 0000752 0000345 26/02/2019 R$ 100,00
FLAVIO SANTOS PEREIRA 0000946 0000753 0000345 26/02/2019 R$ 100,00
ADIVALDO MARES DA ROCHA 0000947 0000754 0000340 26/02/2019 R$ 500,00
ADIVALDO MARES DA ROCHA 0000948 0000755 0000341 26/02/2019 R$ 390,00
JOSE MAZILIO FONSECA ROCHA 0000949 0000756 0000350 26/02/2019 R$ 65,00
AMIDES CARDOSO DE ALMEIDA 0000950 0000757 0000334 26/02/2019 R$ 65,00
AMIDES CARDOSO DE ALMEIDA 0000951 0000758 0000334 26/02/2019 R$ 65,00
ANA PAULA SANTOS 0000981 0000039 0000065 26/02/2019 R$ 580,00
BANCO DO BRASIL 0001031 0000842 0000018 26/02/2019 R$ 10,18
BANCO DO BRASIL 0001034 0000845 0000018 26/02/2019 R$ 30,54
BANCO DO BRASIL 0001039 0000850 0000018 26/02/2019 R$ 61,08
SANDRO DOS SANTOS LIMA 0001073 0002791 26/02/2019 R$ 1.706,93
RICARDO MARTINHO PEREIRA LOPES & CIA LTDA-ME 0001089 0000759 0000490 26/02/2019 R$ 2.370,00
JANSER PEREIRA DE SOUSA 0002073 0001643 0000922 26/02/2019 R$ 65,00
MARIA APARECIDA LIMA LARANJEIRA 0002074 0001644 0000923 26/02/2019 R$ 95,00
PASEP 0000757 0000626 0000008 28/02/2019 R$ 2,57
SANEAR SANEAMENTOS E PROJETOS LTDA-ME 0000919 0000723 0000526 28/02/2019 R$ 44.411,31
SEFORA TRINDADE SOUZA - ME 0000920 0000725 0000532 28/02/2019 R$ 25,00
SECRETARIA DE ESTADO DE CASA CIVIL E DE RELAÇOES INSTITUCIONAIS 0000937 0000744 0000015 28/02/2019 R$ 1.151,67
HUMBERTO MARINHO DE SOUZAME 0000938 0000745 0000533 28/02/2019 R$ 350,00
ADIVALDO MARES DA ROCHA 0000958 0000766 0000340 28/02/2019 R$ 150,00
ROSANE JOAQUINA DA CONCEICAO 0000959 0000767 0000538 28/02/2019 R$ 20,00
JOBIANA DIAS 0000960 0000768 0000539 28/02/2019 R$ 20,00
PASEP 0000977 0000607 0000009 28/02/2019 R$ 3.500,13
PASEP 0001022 0000833 0000008 28/02/2019 R$ 2.230,25
EMATERMG 0001023 0000834 0000011 28/02/2019 R$ 1.293,58
NOVA ASSOCIACAO DOS MUNICIPIOS DA MICRORREGIAO DO BAIXO JEQUITINHONHA - NOVA AMBAJ 0001024 0000835 0000014 28/02/2019 R$ 1.500,00
BANCO DO BRASIL 0001025 0000836 0000018 28/02/2019 R$ 71,26
BANCO DO BRASIL 0001026 0000837 0000018 28/02/2019 R$ 62,59
BANCO DO BRASIL 0001027 0000838 0000020 28/02/2019 R$ 40,72
BANCO DO BRASIL 0001032 0000843 0000018 28/02/2019 R$ 61,08
BANCO DO BRASIL 0001033 0000844 0000021 28/02/2019 R$ 30,54
PASEP 0001037 0000848 0000008 28/02/2019 R$ 0,86
FOLHA DE PAGAMENTO DE SERVIDORES 0001120 0000634 0000135 28/02/2019 R$ 57.981,80
FOLHA DE PAGAMENTO DE SERVIDORES 0001121 0000635 0000138 28/02/2019 R$ 10.697,06
FOLHA DE PAGAMENTO DE SERVIDORES 0001122 0000636 0000139 28/02/2019 R$ 1.544,25
WILTON FIGUEIREDO DOS SANTOS 0001178 0000931 0000568 28/02/2019 R$ 570,00
WILTON FIGUEIREDO DOS SANTOS 0001179 0000932 0000569 28/02/2019 R$ 430,00
ANTONIO RODRIGUES DOS SANTOS 0002075 0001645 0000924 28/02/2019 R$ 100,00
FERNANDA FERREIRA FRANCA RODRIGUES 0002076 0001646 0000925 28/02/2019 R$ 80,00
ANTONIO RODRIGUES DOS SANTOS 0002077 0001647 0000926 28/02/2019 R$ 200,00
RANGEL OLIVEIRA GOMES AMARAL 0002199 0001732 0000951 28/02/2019 R$ 40,00